createdAt,value
2023-03-31T00:00:32.292Z,0
2023-03-31T00:01:32.368Z,0
2023-03-31T00:02:32.373Z,0
2023-03-31T00:03:32.413Z,0
2023-03-31T00:04:32.486Z,0
2023-03-31T00:05:39.353Z,0
2023-03-31T00:06:32.312Z,0
2023-03-31T00:07:32.310Z,0
2023-03-31T00:08:32.298Z,0
2023-03-31T00:09:32.344Z,0
2023-03-31T00:10:32.303Z,0
2023-03-31T00:11:32.300Z,0
2023-03-31T00:12:32.306Z,0
2023-03-31T00:13:32.320Z,0
2023-03-31T00:14:32.304Z,0
2023-03-31T00:15:32.300Z,0
2023-03-31T00:16:32.367Z,0
2023-03-31T00:17:32.350Z,0
2023-03-31T00:18:32.298Z,0
2023-03-31T00:19:32.309Z,0
2023-03-31T00:20:32.333Z,0
2023-03-31T00:21:32.344Z,0
2023-03-31T00:22:32.294Z,0
2023-03-31T00:23:32.300Z,0
2023-03-31T00:24:32.427Z,0
2023-03-31T00:25:33.613Z,0
2023-03-31T00:26:32.351Z,0
2023-03-31T00:27:32.341Z,0
2023-03-31T00:28:32.298Z,0
2023-03-31T00:29:32.321Z,0
2023-03-31T00:30:32.292Z,0
2023-03-31T00:31:32.309Z,0
2023-03-31T00:32:32.369Z,0
2023-03-31T00:33:32.379Z,0
2023-03-31T00:34:32.281Z,0
2023-03-31T00:35:32.361Z,0
2023-03-31T00:36:32.312Z,0
2023-03-31T00:37:32.310Z,0
2023-03-31T00:38:32.319Z,0
2023-03-31T00:39:32.306Z,0
2023-03-31T00:40:32.288Z,0
2023-03-31T00:41:32.313Z,0
2023-03-31T00:42:32.270Z,0
2023-03-31T00:43:32.396Z,0
2023-03-31T00:44:32.283Z,0
2023-03-31T00:45:32.345Z,0
2023-03-31T00:46:32.281Z,0
2023-03-31T00:47:32.355Z,0
2023-03-31T00:48:32.278Z,0
2023-03-31T00:49:32.320Z,0
2023-03-31T00:50:32.279Z,0
2023-03-31T00:51:32.290Z,0
2023-03-31T00:52:32.340Z,0
2023-03-31T00:53:32.324Z,0
2023-03-31T00:54:32.305Z,0
2023-03-31T00:55:32.321Z,0
2023-03-31T00:56:32.290Z,0
2023-03-31T00:57:32.334Z,0
2023-03-31T00:58:32.284Z,0
2023-03-31T00:59:32.298Z,0
2023-03-31T01:00:32.296Z,0
2023-03-31T01:01:32.388Z,0
2023-03-31T01:02:32.321Z,0
2023-03-31T01:03:32.333Z,0
2023-03-31T01:04:32.286Z,0
2023-03-31T01:05:32.348Z,0
2023-03-31T01:06:32.292Z,0
2023-03-31T01:07:32.312Z,0
2023-03-31T01:08:32.277Z,0
2023-03-31T01:09:32.316Z,0
2023-03-31T01:10:32.260Z,0
2023-03-31T01:11:32.289Z,0
2023-03-31T01:12:32.305Z,0
2023-03-31T01:13:32.253Z,0
2023-03-31T01:14:32.339Z,0
2023-03-31T01:15:33.619Z,0
2023-03-31T01:16:32.367Z,0
2023-03-31T01:17:32.501Z,0
2023-03-31T01:18:32.334Z,0
2023-03-31T01:19:32.256Z,0
2023-03-31T01:20:32.294Z,0
2023-03-31T01:21:32.275Z,0
2023-03-31T01:22:32.321Z,0
2023-03-31T01:23:32.324Z,0
2023-03-31T01:24:32.281Z,0
2023-03-31T01:25:32.917Z,0
2023-03-31T01:26:32.282Z,0
2023-03-31T01:27:32.337Z,0
2023-03-31T01:28:32.276Z,0
2023-03-31T01:29:32.295Z,0
2023-03-31T01:30:32.336Z,0
2023-03-31T01:31:32.308Z,0
2023-03-31T01:32:32.361Z,0
2023-03-31T01:33:32.286Z,0
2023-03-31T01:34:32.313Z,0
2023-03-31T01:35:32.302Z,0
2023-03-31T01:36:32.275Z,0
2023-03-31T01:37:32.339Z,0
2023-03-31T01:38:32.283Z,0
2023-03-31T01:39:32.278Z,0
2023-03-31T01:40:32.389Z,0
2023-03-31T01:41:32.470Z,0
2023-03-31T01:42:32.466Z,0
2023-03-31T01:43:32.399Z,0
2023-03-31T01:44:32.451Z,0
2023-03-31T01:45:32.421Z,0
2023-03-31T01:46:32.493Z,0
2023-03-31T01:47:32.443Z,0
2023-03-31T01:48:32.455Z,0
2023-03-31T01:49:32.386Z,0
2023-03-31T01:50:32.493Z,0
2023-03-31T01:51:32.393Z,0
2023-03-31T01:52:32.420Z,0
2023-03-31T01:53:32.443Z,0
2023-03-31T01:54:32.432Z,0
2023-03-31T01:55:32.420Z,0
2023-03-31T01:56:32.391Z,0
2023-03-31T01:57:32.443Z,0
2023-03-31T01:58:32.399Z,0
2023-03-31T01:59:32.301Z,0
2023-03-31T02:00:32.294Z,0
2023-03-31T02:01:32.472Z,0
2023-03-31T02:02:32.435Z,0
2023-03-31T02:03:32.342Z,0
2023-03-31T02:04:32.291Z,0
2023-03-31T02:05:32.336Z,0
2023-03-31T02:06:32.280Z,0
2023-03-31T02:07:32.255Z,0
2023-03-31T02:08:32.268Z,0
2023-03-31T02:09:32.270Z,0
2023-03-31T02:10:32.310Z,0
2023-03-31T02:11:32.298Z,0
2023-03-31T02:12:32.289Z,0
2023-03-31T02:13:32.237Z,0
2023-03-31T02:14:32.287Z,0
2023-03-31T02:15:32.302Z,0
2023-03-31T02:16:32.387Z,0
2023-03-31T02:17:32.294Z,0
2023-03-31T02:18:32.303Z,0
2023-03-31T02:19:32.270Z,0
2023-03-31T02:20:32.277Z,0
2023-03-31T02:21:32.324Z,0
2023-03-31T02:22:32.298Z,0
2023-03-31T02:23:32.309Z,0
2023-03-31T02:24:32.368Z,0
2023-03-31T02:25:32.299Z,0
2023-03-31T02:26:32.259Z,0
2023-03-31T02:27:32.289Z,0
2023-03-31T02:28:32.307Z,0
2023-03-31T02:29:32.313Z,0
2023-03-31T02:30:32.320Z,0
2023-03-31T02:31:32.363Z,0
2023-03-31T02:32:32.353Z,0
2023-03-31T02:33:32.261Z,0
2023-03-31T02:34:32.285Z,0
2023-03-31T02:35:32.290Z,0
2023-03-31T02:36:32.297Z,0
2023-03-31T02:37:32.280Z,0
2023-03-31T02:38:32.275Z,0
2023-03-31T02:39:32.268Z,0
2023-03-31T02:40:32.274Z,0
2023-03-31T02:41:32.292Z,0
2023-03-31T02:42:32.305Z,0
2023-03-31T02:43:32.279Z,0
2023-03-31T02:44:32.311Z,0
2023-03-31T02:45:32.282Z,0
2023-03-31T02:46:32.358Z,0
2023-03-31T02:47:32.370Z,0
2023-03-31T02:48:32.353Z,0
2023-03-31T02:49:32.325Z,0
2023-03-31T02:50:34.284Z,0
2023-03-31T02:51:32.300Z,0
2023-03-31T02:52:32.308Z,0
2023-03-31T02:53:32.303Z,0
2023-03-31T02:54:32.281Z,0
2023-03-31T02:55:32.302Z,0
2023-03-31T02:56:32.336Z,0
2023-03-31T02:57:32.275Z,0
2023-03-31T02:58:32.291Z,0
2023-03-31T02:59:32.286Z,0
2023-03-31T03:00:32.349Z,0
2023-03-31T03:01:32.304Z,0
2023-03-31T03:02:32.419Z,0
2023-03-31T03:03:32.308Z,0
2023-03-31T03:04:32.264Z,0
2023-03-31T03:05:32.398Z,0
2023-03-31T03:06:32.275Z,0
2023-03-31T03:07:32.295Z,0
2023-03-31T03:08:32.295Z,0
2023-03-31T03:09:32.259Z,0
2023-03-31T03:10:32.419Z,0
2023-03-31T03:11:32.269Z,0
2023-03-31T03:12:32.423Z,0
2023-03-31T03:13:32.435Z,0
2023-03-31T03:14:32.422Z,0
2023-03-31T03:15:32.249Z,0
2023-03-31T03:16:32.305Z,0
2023-03-31T03:17:32.314Z,0
2023-03-31T03:18:32.346Z,0
2023-03-31T03:19:32.412Z,0
2023-03-31T03:20:32.316Z,0
2023-03-31T03:21:32.408Z,0
2023-03-31T03:22:32.460Z,0
2023-03-31T03:23:32.262Z,0
2023-03-31T03:24:32.300Z,0
2023-03-31T03:25:32.291Z,0
2023-03-31T03:26:32.342Z,0
2023-03-31T03:27:32.293Z,0
2023-03-31T03:28:32.402Z,0
2023-03-31T03:29:32.376Z,0
2023-03-31T03:30:32.308Z,0
2023-03-31T03:31:32.375Z,0
2023-03-31T03:32:32.410Z,0
2023-03-31T03:33:32.318Z,0
2023-03-31T03:34:32.320Z,0
2023-03-31T03:35:32.429Z,0
2023-03-31T03:36:32.304Z,0
2023-03-31T03:37:32.267Z,0
2023-03-31T03:38:32.295Z,0
2023-03-31T03:39:32.304Z,0
2023-03-31T03:40:32.351Z,0
2023-03-31T03:41:32.272Z,0
2023-03-31T03:42:32.386Z,0
2023-03-31T03:43:32.425Z,0
2023-03-31T03:44:32.294Z,0
2023-03-31T03:45:32.286Z,0
2023-03-31T03:46:32.447Z,0
2023-03-31T03:47:32.399Z,0
2023-03-31T03:48:32.461Z,0
2023-03-31T03:49:32.249Z,0
2023-03-31T03:50:32.333Z,0
2023-03-31T03:51:32.289Z,0
2023-03-31T03:52:32.328Z,0
2023-03-31T03:53:32.379Z,0
2023-03-31T03:54:32.292Z,0
2023-03-31T03:55:32.261Z,0
2023-03-31T03:56:32.313Z,0
2023-03-31T03:57:32.328Z,0
2023-03-31T03:58:32.340Z,0
2023-03-31T03:59:32.262Z,0
2023-03-31T04:00:32.299Z,0
2023-03-31T04:01:32.252Z,0
2023-03-31T04:02:32.485Z,0
2023-03-31T04:03:32.343Z,0
2023-03-31T04:04:32.354Z,0
2023-03-31T04:05:32.263Z,0
2023-03-31T04:06:32.277Z,0
2023-03-31T04:07:32.292Z,0
2023-03-31T04:08:32.284Z,0
2023-03-31T04:09:32.251Z,0
2023-03-31T04:10:32.266Z,0
2023-03-31T04:11:32.297Z,0
2023-03-31T04:12:32.262Z,0
2023-03-31T04:13:32.260Z,0
2023-03-31T04:14:32.204Z,0
2023-03-31T04:15:32.305Z,0
2023-03-31T04:16:32.348Z,0
2023-03-31T04:17:32.325Z,0
2023-03-31T04:18:32.397Z,0
2023-03-31T04:19:32.360Z,0
2023-03-31T04:20:32.232Z,0
2023-03-31T04:21:32.282Z,0
2023-03-31T04:22:32.258Z,0
2023-03-31T04:23:32.314Z,0
2023-03-31T04:24:32.277Z,0
2023-03-31T04:25:32.301Z,0
2023-03-31T04:26:32.249Z,0
2023-03-31T04:27:32.299Z,0
2023-03-31T04:28:32.409Z,0
2023-03-31T04:29:32.276Z,0
2023-03-31T04:30:32.245Z,0
2023-03-31T04:31:32.549Z,0
2023-03-31T04:32:32.302Z,0
2023-03-31T04:33:32.289Z,0
2023-03-31T04:34:32.261Z,0
2023-03-31T04:35:32.313Z,0
2023-03-31T04:36:32.269Z,0
2023-03-31T04:37:32.328Z,0
2023-03-31T04:38:32.279Z,0
2023-03-31T04:39:32.270Z,0.36
2023-03-31T04:40:32.250Z,1.22
2023-03-31T04:41:32.276Z,0.36
2023-03-31T04:42:32.266Z,0.36
2023-03-31T04:43:32.247Z,1.22
2023-03-31T04:44:32.236Z,0.85
2023-03-31T04:45:32.295Z,0.85
2023-03-31T04:46:32.259Z,1.22
2023-03-31T04:47:32.298Z,1.22
2023-03-31T04:48:32.283Z,0.36
2023-03-31T04:49:32.293Z,1.22
2023-03-31T04:50:32.258Z,1.71
2023-03-31T04:51:32.293Z,2.08
2023-03-31T04:52:32.297Z,1.71
2023-03-31T04:53:32.386Z,1.71
2023-03-31T04:54:32.255Z,2.08
2023-03-31T04:55:32.248Z,1.22
2023-03-31T04:56:32.262Z,2.08
2023-03-31T04:57:32.355Z,2.57
2023-03-31T04:58:32.345Z,2.57
2023-03-31T04:59:32.277Z,2.57
2023-03-31T05:00:32.241Z,2.57
2023-03-31T05:01:32.405Z,2.94
2023-03-31T05:02:32.392Z,2.94
2023-03-31T05:03:32.391Z,3.43
2023-03-31T05:04:32.304Z,2.94
2023-03-31T05:05:32.269Z,2.57
2023-03-31T05:06:32.264Z,3.43
2023-03-31T05:07:32.246Z,3.43
2023-03-31T05:08:32.247Z,2.94
2023-03-31T05:09:34.649Z,2.94
2023-03-31T05:10:32.258Z,2.94
2023-03-31T05:11:32.273Z,4.28
2023-03-31T05:12:32.310Z,3.43
2023-03-31T05:13:32.337Z,5.14
2023-03-31T05:14:32.281Z,5.99
2023-03-31T05:15:34.586Z,6.48
2023-03-31T05:16:32.306Z,5.63
2023-03-31T05:17:32.254Z,4.28
2023-03-31T05:18:32.316Z,6.48
2023-03-31T05:19:32.268Z,5.63
2023-03-31T05:20:32.273Z,5.63
2023-03-31T05:21:32.270Z,5.99
2023-03-31T05:22:32.247Z,7.7
2023-03-31T05:23:32.302Z,6.48
2023-03-31T05:24:32.432Z,7.7
2023-03-31T05:25:32.306Z,7.34
2023-03-31T05:26:32.273Z,6.85
2023-03-31T05:27:32.249Z,6.48
2023-03-31T05:28:32.566Z,7.34
2023-03-31T05:29:32.287Z,5.99
2023-03-31T05:30:32.283Z,5.63
2023-03-31T05:31:32.278Z,5.99
2023-03-31T05:32:32.334Z,5.99
2023-03-31T05:33:32.252Z,6.85
2023-03-31T05:34:32.293Z,6.48
2023-03-31T05:35:32.266Z,7.7
2023-03-31T05:36:32.286Z,8.19
2023-03-31T05:37:32.341Z,7.7
2023-03-31T05:38:32.296Z,8.56
2023-03-31T05:39:32.308Z,8.19
2023-03-31T05:40:32.310Z,7.7
2023-03-31T05:41:32.256Z,9.05
2023-03-31T05:42:32.277Z,8.56
2023-03-31T05:43:32.258Z,7.7
2023-03-31T05:44:32.304Z,8.19
2023-03-31T05:45:32.280Z,8.19
2023-03-31T05:46:32.317Z,9.05
2023-03-31T05:47:32.265Z,8.56
2023-03-31T05:48:32.293Z,9.05
2023-03-31T05:49:32.264Z,9.54
2023-03-31T05:50:32.308Z,9.54
2023-03-31T05:51:32.248Z,9.54
2023-03-31T05:52:32.325Z,9.54
2023-03-31T05:53:32.275Z,10.39
2023-03-31T05:54:32.296Z,9.91
2023-03-31T05:55:33.649Z,10.39
2023-03-31T05:56:32.288Z,9.05
2023-03-31T05:57:32.355Z,8.19
2023-03-31T05:58:32.253Z,8.56
2023-03-31T05:59:32.248Z,8.56
2023-03-31T06:00:32.267Z,8.19
2023-03-31T06:01:32.319Z,8.56
2023-03-31T06:02:32.401Z,9.91
2023-03-31T06:03:32.308Z,10.39
2023-03-31T06:04:32.313Z,9.91
2023-03-31T06:05:32.317Z,9.91
2023-03-31T06:06:32.291Z,9.54
2023-03-31T06:07:32.264Z,10.39
2023-03-31T06:08:32.284Z,10.39
2023-03-31T06:09:32.315Z,9.91
2023-03-31T06:10:32.264Z,11.62
2023-03-31T06:11:32.277Z,11.25
2023-03-31T06:12:32.310Z,10.39
2023-03-31T06:13:32.277Z,10.39
2023-03-31T06:14:32.269Z,11.25
2023-03-31T06:15:32.268Z,9.91
2023-03-31T06:16:32.263Z,10.77
2023-03-31T06:17:32.262Z,10.39
2023-03-31T06:18:32.272Z,9.54
2023-03-31T06:19:32.260Z,10.39
2023-03-31T06:20:32.251Z,10.77
2023-03-31T06:21:32.272Z,10.39
2023-03-31T06:22:32.253Z,9.54
2023-03-31T06:23:32.323Z,10.39
2023-03-31T06:24:32.280Z,9.54
2023-03-31T06:25:40.401Z,9.91
2023-03-31T06:26:32.551Z,9.91
2023-03-31T06:27:32.344Z,11.25
2023-03-31T06:28:32.238Z,11.25
2023-03-31T06:29:32.262Z,10.39
2023-03-31T06:30:32.238Z,12.11
2023-03-31T06:31:32.310Z,11.62
2023-03-31T06:32:32.293Z,13.33
2023-03-31T06:33:32.298Z,13.82
2023-03-31T06:34:32.274Z,13.82
2023-03-31T06:35:32.268Z,14.31
2023-03-31T06:36:32.229Z,16.02
2023-03-31T06:37:32.230Z,14.31
2023-03-31T06:38:32.232Z,14.31
2023-03-31T06:39:32.247Z,15.17
2023-03-31T06:40:32.247Z,16.02
2023-03-31T06:41:32.258Z,17.73
2023-03-31T06:42:32.254Z,18.6
2023-03-31T06:43:32.256Z,19.08
2023-03-31T06:44:32.286Z,19.45
2023-03-31T06:45:32.247Z,21.16
2023-03-31T06:46:32.282Z,25.56
2023-03-31T06:47:32.331Z,26.42
2023-03-31T06:48:32.243Z,28.14
2023-03-31T06:49:32.256Z,29.48
2023-03-31T06:50:32.274Z,33.39
2023-03-31T06:51:32.827Z,33.39
2023-03-31T06:52:32.273Z,32.42
2023-03-31T06:53:32.246Z,35.48
2023-03-31T06:54:32.225Z,35.97
2023-03-31T06:55:32.281Z,35.11
2023-03-31T06:56:32.295Z,35.11
2023-03-31T06:57:32.353Z,33.39
2023-03-31T06:58:32.274Z,36.33
2023-03-31T06:59:32.266Z,37.68
2023-03-31T07:00:32.274Z,37.19
2023-03-31T07:01:32.277Z,35.48
2023-03-31T07:02:32.322Z,33.76
2023-03-31T07:03:32.319Z,34.25
2023-03-31T07:04:32.249Z,35.11
2023-03-31T07:05:32.247Z,34.25
2023-03-31T07:06:32.307Z,34.62
2023-03-31T07:07:32.327Z,37.19
2023-03-31T07:08:32.276Z,34.62
2023-03-31T07:09:32.246Z,32.42
2023-03-31T07:10:32.249Z,31.19
2023-03-31T07:11:32.268Z,30.7
2023-03-31T07:12:32.262Z,29.48
2023-03-31T07:13:32.256Z,28.63
2023-03-31T07:14:32.254Z,25.56
2023-03-31T07:15:32.266Z,25.56
2023-03-31T07:16:32.289Z,25.56
2023-03-31T07:17:32.322Z,24.22
2023-03-31T07:18:34.379Z,22.02
2023-03-31T07:19:32.319Z,23.85
2023-03-31T07:20:32.256Z,23.85
2023-03-31T07:21:32.257Z,25.07
2023-03-31T07:22:32.285Z,29.85
2023-03-31T07:23:32.270Z,28.99
2023-03-31T07:24:32.270Z,28.14
2023-03-31T07:25:32.262Z,29.85
2023-03-31T07:26:32.243Z,26.42
2023-03-31T07:27:32.278Z,24.22
2023-03-31T07:28:32.241Z,25.94
2023-03-31T07:29:32.254Z,30.7
2023-03-31T07:30:32.239Z,34.25
2023-03-31T07:31:32.314Z,35.97
2023-03-31T07:32:32.313Z,37.68
2023-03-31T07:33:32.255Z,35.97
2023-03-31T07:34:32.245Z,35.11
2023-03-31T07:35:32.353Z,33.39
2023-03-31T07:36:32.337Z,32.9
2023-03-31T07:37:32.266Z,30.34
2023-03-31T07:38:32.240Z,28.14
2023-03-31T07:39:32.269Z,29.85
2023-03-31T07:40:32.251Z,29.85
2023-03-31T07:41:32.260Z,29.48
2023-03-31T07:42:32.252Z,32.42
2023-03-31T07:43:32.292Z,32.42
2023-03-31T07:44:32.385Z,31.19
2023-03-31T07:45:32.265Z,32.9
2023-03-31T07:46:32.307Z,32.42
2023-03-31T07:47:32.305Z,31.19
2023-03-31T07:48:32.245Z,30.34
2023-03-31T07:49:32.218Z,32.9
2023-03-31T07:50:32.240Z,33.76
2023-03-31T07:51:32.273Z,34.25
2023-03-31T07:52:32.235Z,36.33
2023-03-31T07:53:32.308Z,34.62
2023-03-31T07:54:32.253Z,34.62
2023-03-31T07:55:32.273Z,35.48
2023-03-31T07:56:32.238Z,36.82
2023-03-31T07:57:32.361Z,38.17
2023-03-31T07:58:32.240Z,39.02
2023-03-31T07:59:32.277Z,36.33
2023-03-31T08:00:32.275Z,36.82
2023-03-31T08:01:32.294Z,35.97
2023-03-31T08:02:32.349Z,36.82
2023-03-31T08:03:32.413Z,39.39
2023-03-31T08:04:32.314Z,46.36
2023-03-31T08:05:32.217Z,53.7
2023-03-31T08:06:32.237Z,54.19
2023-03-31T08:07:32.312Z,52.48
2023-03-31T08:08:32.254Z,49.42
2023-03-31T08:09:32.272Z,48.07
2023-03-31T08:10:32.253Z,45.87
2023-03-31T08:11:32.256Z,45.87
2023-03-31T08:12:32.269Z,47.71
2023-03-31T08:13:32.253Z,46.73
2023-03-31T08:14:40.586Z,49.79
2023-03-31T08:15:32.285Z,49.42
2023-03-31T08:16:32.323Z,45.51
2023-03-31T08:17:32.259Z,44.65
2023-03-31T08:18:32.214Z,45.87
2023-03-31T08:19:32.260Z,45.87
2023-03-31T08:20:32.256Z,45.51
2023-03-31T08:21:32.239Z,44.16
2023-03-31T08:22:32.258Z,45.87
2023-03-31T08:23:32.286Z,48.07
2023-03-31T08:24:32.248Z,50.28
2023-03-31T08:25:32.242Z,55.05
2023-03-31T08:26:32.229Z,58.11
2023-03-31T08:27:32.253Z,60.19
2023-03-31T08:28:32.219Z,57.62
2023-03-31T08:29:32.227Z,58.11
2023-03-31T08:30:32.291Z,60.19
2023-03-31T08:31:32.310Z,64.96
2023-03-31T08:32:32.277Z,72.42
2023-03-31T08:33:32.237Z,104.48
2023-03-31T08:34:32.265Z,113.65
2023-03-31T08:35:32.285Z,104.48
2023-03-31T08:36:32.285Z,112.67
2023-03-31T08:37:32.241Z,102.76
2023-03-31T08:38:32.221Z,100.19
2023-03-31T08:39:32.246Z,107.04
2023-03-31T08:40:32.240Z,105.82
2023-03-31T08:41:32.273Z,101.9
2023-03-31T08:42:32.237Z,103.13
2023-03-31T08:43:32.264Z,104.48
2023-03-31T08:44:32.260Z,107.04
2023-03-31T08:45:32.360Z,116.22
2023-03-31T08:46:32.337Z,87.96
2023-03-31T08:47:32.317Z,119.64
2023-03-31T08:48:32.240Z,129.19
2023-03-31T08:49:32.236Z,101.9
2023-03-31T08:50:32.228Z,85.02
2023-03-31T08:51:32.247Z,93.58
2023-03-31T08:52:32.256Z,83.68
2023-03-31T08:53:32.222Z,90.16
2023-03-31T08:54:32.222Z,76.7
2023-03-31T08:55:32.382Z,75.85
2023-03-31T08:56:32.244Z,77.56
2023-03-31T08:57:32.278Z,97.99
2023-03-31T08:58:32.332Z,97.99
2023-03-31T08:59:32.262Z,99.7
2023-03-31T09:00:32.245Z,104.96
2023-03-31T09:01:37.955Z,108.39
2023-03-31T09:02:32.366Z,105.82
2023-03-31T09:03:32.441Z,107.04
2023-03-31T09:04:32.245Z,105.82
2023-03-31T09:05:32.245Z,104.1
2023-03-31T09:06:32.227Z,106.68
2023-03-31T09:07:32.302Z,108.88
2023-03-31T09:08:32.229Z,106.68
2023-03-31T09:09:32.210Z,115.73
2023-03-31T09:10:32.236Z,120.13
2023-03-31T09:11:32.267Z,123.56
2023-03-31T09:12:32.253Z,136.16
2023-03-31T09:13:32.245Z,152.19
2023-03-31T09:14:32.245Z,162.22
2023-03-31T09:15:32.247Z,115.73
2023-03-31T09:16:32.345Z,142.64
2023-03-31T09:17:32.319Z,202.1
2023-03-31T09:18:32.244Z,158.3
2023-03-31T09:19:32.223Z,174.81
2023-03-31T09:20:32.234Z,99.34
2023-03-31T09:21:32.241Z,97.99
2023-03-31T09:22:32.222Z,118.78
2023-03-31T09:23:32.261Z,131.88
2023-03-31T09:24:32.957Z,87.1
2023-03-31T09:25:32.250Z,167.85
2023-03-31T09:26:32.238Z,168.21
2023-03-31T09:27:32.237Z,275.86
2023-03-31T09:28:32.216Z,149.12
2023-03-31T09:29:32.236Z,197.81
2023-03-31T09:30:32.249Z,268.52
2023-03-31T09:31:32.333Z,154.75
2023-03-31T09:32:32.426Z,113.16
2023-03-31T09:33:32.479Z,115.36
2023-03-31T09:34:32.267Z,128.33
2023-03-31T09:35:32.314Z,162.22
2023-03-31T09:36:32.211Z,179.1
2023-03-31T09:37:32.283Z,78.05
2023-03-31T09:38:32.239Z,73.65
2023-03-31T09:39:32.263Z,77.56
2023-03-31T09:40:32.246Z,188.27
2023-03-31T09:41:34.149Z,192.56
2023-03-31T09:42:32.222Z,203.44
2023-03-31T09:43:32.229Z,209.93
2023-03-31T09:44:32.235Z,206.87
2023-03-31T09:45:32.257Z,239.78
2023-03-31T09:46:32.306Z,237.21
2023-03-31T09:47:32.275Z,252.38
2023-03-31T09:48:32.328Z,188.27
2023-03-31T09:49:32.243Z,123.56
2023-03-31T09:50:32.220Z,229.87
2023-03-31T09:51:32.314Z,110.96
2023-03-31T09:52:32.221Z,108.88
2023-03-31T09:53:32.247Z,139.22
2023-03-31T09:54:32.234Z,189.98
2023-03-31T09:55:38.751Z,180.81
2023-03-31T09:56:32.313Z,169.56
2023-03-31T09:57:34.068Z,194.27
2023-03-31T09:58:32.230Z,261.92
2023-03-31T09:59:32.262Z,289.32
2023-03-31T10:00:32.241Z,320.15
2023-03-31T10:01:32.238Z,276.72
2023-03-31T10:02:32.310Z,248.95
2023-03-31T10:03:32.242Z,281.86
2023-03-31T10:04:32.413Z,268.9
2023-03-31T10:05:32.274Z,256.29
2023-03-31T10:06:32.233Z,233.29
2023-03-31T10:07:32.246Z,293.24
2023-03-31T10:08:32.225Z,238.92
2023-03-31T10:09:32.259Z,238.92
2023-03-31T10:10:32.230Z,265.47
2023-03-31T10:11:32.247Z,295.81
2023-03-31T10:12:32.282Z,295.32
2023-03-31T10:13:32.263Z,325.29
2023-03-31T10:14:32.228Z,362.6
2023-03-31T10:15:32.272Z,344.37
2023-03-31T10:16:32.371Z,357.34
2023-03-31T10:17:40.659Z,347.43
2023-03-31T10:18:32.316Z,371.29
2023-03-31T10:19:32.214Z,352.2
2023-03-31T10:20:32.239Z,361.25
2023-03-31T10:21:32.266Z,381.69
2023-03-31T10:22:32.295Z,340.95
2023-03-31T10:23:32.283Z,383.89
2023-03-31T10:24:32.243Z,411.66
2023-03-31T10:25:32.242Z,346.09
2023-03-31T10:26:32.265Z,351.35
2023-03-31T10:27:32.245Z,288.47
2023-03-31T10:28:32.269Z,310.12
2023-03-31T10:29:32.228Z,273.66
2023-03-31T10:30:32.245Z,247.24
2023-03-31T10:31:32.266Z,248.95
2023-03-31T10:32:32.273Z,302.78
2023-03-31T10:33:32.277Z,208.58
2023-03-31T10:34:32.273Z,226.81
2023-03-31T10:35:32.255Z,190.36
2023-03-31T10:36:32.246Z,237.21
2023-03-31T10:37:32.259Z,245.9
2023-03-31T10:38:32.249Z,227.3
2023-03-31T10:39:32.215Z,226.81
2023-03-31T10:40:32.288Z,261.55
2023-03-31T10:41:32.211Z,279.29
2023-03-31T10:42:32.223Z,274.52
2023-03-31T10:43:32.193Z,259.35
2023-03-31T10:44:32.214Z,304
2023-03-31T10:45:37.847Z,181.3
2023-03-31T10:46:32.299Z,281.49
2023-03-31T10:47:32.289Z,202.59
2023-03-31T10:48:32.210Z,197.32
2023-03-31T10:49:32.235Z,179.59
2023-03-31T10:50:32.264Z,130.04
2023-03-31T10:51:32.221Z,178.61
2023-03-31T10:52:32.209Z,131.39
2023-03-31T10:53:32.264Z,144.85
2023-03-31T10:54:32.249Z,242.47
2023-03-31T10:55:32.222Z,222.9
2023-03-31T10:56:32.283Z,246.75
2023-03-31T10:57:32.283Z,222.04
2023-03-31T10:58:32.240Z,225.95
2023-03-31T10:59:32.231Z,150.96
2023-03-31T11:00:32.257Z,278.93
2023-03-31T11:01:32.258Z,128.82
2023-03-31T11:02:32.354Z,142.27
2023-03-31T11:03:32.292Z,130.9
2023-03-31T11:04:32.281Z,127.96
2023-03-31T11:05:32.204Z,126.12
2023-03-31T11:06:32.297Z,296.66
2023-03-31T11:07:32.254Z,368.72
2023-03-31T11:08:32.228Z,137.87
2023-03-31T11:09:32.214Z,388.66
2023-03-31T11:10:32.243Z,378.63
2023-03-31T11:11:32.219Z,331.4
2023-03-31T11:12:32.230Z,312.32
2023-03-31T11:13:32.253Z,341.81
2023-03-31T11:14:32.261Z,283.69
2023-03-31T11:15:32.366Z,161.36
2023-03-31T11:16:32.304Z,176.53
2023-03-31T11:17:32.331Z,376.06
2023-03-31T11:18:32.265Z,342.66
2023-03-31T11:19:32.217Z,378.63
2023-03-31T11:20:32.237Z,176.53
2023-03-31T11:21:32.284Z,271.46
2023-03-31T11:22:32.234Z,225.46
2023-03-31T11:23:32.217Z,271.95
2023-03-31T11:24:32.240Z,212.98
2023-03-31T11:25:32.194Z,164.78
2023-03-31T11:26:32.190Z,256.29
2023-03-31T11:27:32.222Z,289.32
2023-03-31T11:28:32.274Z,264.61
2023-03-31T11:29:32.250Z,205.52
2023-03-31T11:30:32.205Z,158.3
2023-03-31T11:31:32.253Z,165.27
2023-03-31T11:32:32.291Z,209.07
2023-03-31T11:33:32.216Z,230.24
2023-03-31T11:34:32.252Z,228.52
2023-03-31T11:35:32.233Z,225.46
2023-03-31T11:36:32.219Z,198.67
2023-03-31T11:37:32.325Z,233.78
2023-03-31T11:38:32.219Z,287.98
2023-03-31T11:39:32.211Z,368.23
2023-03-31T11:40:32.227Z,367.86
2023-03-31T11:41:32.226Z,304.86
2023-03-31T11:42:32.210Z,300.58
2023-03-31T11:43:32.225Z,300.95
2023-03-31T11:44:32.278Z,234.64
2023-03-31T11:45:32.249Z,304
2023-03-31T11:46:32.219Z,325.29
2023-03-31T11:47:32.299Z,291.4
2023-03-31T11:48:32.238Z,342.17
2023-03-31T11:49:32.248Z,311.47
2023-03-31T11:50:32.217Z,389.88
2023-03-31T11:51:32.231Z,422.06
2023-03-31T11:52:32.265Z,451.05
2023-03-31T11:53:32.300Z,437.23
2023-03-31T11:54:32.212Z,433.31
2023-03-31T11:55:32.191Z,461.08
2023-03-31T11:56:32.236Z,441.51
2023-03-31T11:57:32.415Z,466.35
2023-03-31T11:58:32.228Z,461.08
2023-03-31T11:59:32.193Z,456.31
2023-03-31T12:00:32.253Z,398.2
2023-03-31T12:01:32.286Z,409.94
2023-03-31T12:02:32.285Z,300.95
2023-03-31T12:03:32.246Z,301.44
2023-03-31T12:04:32.262Z,331.4
2023-03-31T12:05:32.232Z,294.1
2023-03-31T12:06:32.239Z,315.38
2023-03-31T12:07:32.250Z,275.86
2023-03-31T12:08:32.250Z,359.18
2023-03-31T12:09:32.217Z,281.86
2023-03-31T12:10:32.200Z,327.49
2023-03-31T12:11:32.244Z,323.95
2023-03-31T12:12:32.229Z,363.95
2023-03-31T12:13:32.222Z,439.79
2023-03-31T12:14:32.223Z,429.89
2023-03-31T12:15:32.218Z,423.28
2023-03-31T12:16:32.291Z,397.71
2023-03-31T12:17:32.288Z,345.72
2023-03-31T12:18:32.208Z,337.03
2023-03-31T12:19:32.206Z,344.37
2023-03-31T12:20:32.219Z,310.61
2023-03-31T12:21:32.235Z,381.32
2023-03-31T12:22:32.231Z,225.1
2023-03-31T12:23:32.217Z,275.86
2023-03-31T12:24:32.229Z,223.75
2023-03-31T12:25:32.233Z,193.9
2023-03-31T12:26:32.202Z,189.49
2023-03-31T12:27:32.250Z,219.83
2023-03-31T12:28:32.244Z,272.32
2023-03-31T12:29:32.233Z,272.32
2023-03-31T12:30:32.195Z,337.4
2023-03-31T12:31:32.243Z,319.17
2023-03-31T12:32:32.226Z,373
2023-03-31T12:33:32.274Z,286.63
2023-03-31T12:34:32.210Z,289.69
2023-03-31T12:35:32.308Z,318.81
2023-03-31T12:36:32.271Z,361.25
2023-03-31T12:37:32.202Z,389.52
2023-03-31T12:38:32.230Z,304
2023-03-31T12:39:32.215Z,333.98
2023-03-31T12:40:32.223Z,225.46
2023-03-31T12:41:32.240Z,140.07
2023-03-31T12:42:32.221Z,126.61
2023-03-31T12:43:32.252Z,108.39
2023-03-31T12:44:32.228Z,189.13
2023-03-31T12:45:32.204Z,244.67
2023-03-31T12:46:32.242Z,333.12
2023-03-31T12:47:32.209Z,323.09
2023-03-31T12:48:32.239Z,405.54
2023-03-31T12:49:32.213Z,428.18
2023-03-31T12:50:32.206Z,412.52
2023-03-31T12:51:32.197Z,323.58
2023-03-31T12:52:32.204Z,356.49
2023-03-31T12:53:32.226Z,296.66
2023-03-31T12:54:32.220Z,350.49
2023-03-31T12:55:32.230Z,337.89
2023-03-31T12:56:32.239Z,354.78
2023-03-31T12:57:32.628Z,292.75
2023-03-31T12:58:33.094Z,205.52
2023-03-31T12:59:32.205Z,212.49
2023-03-31T13:00:32.270Z,235.98
2023-03-31T13:01:32.397Z,192.56
2023-03-31T13:02:32.281Z,161.36
2023-03-31T13:03:32.201Z,195.12
2023-03-31T13:04:32.235Z,117.44
2023-03-31T13:05:32.267Z,229.01
2023-03-31T13:06:32.310Z,169.56
2023-03-31T13:07:32.199Z,59.82
2023-03-31T13:08:32.219Z,60.68
2023-03-31T13:09:32.251Z,60.68
2023-03-31T13:10:32.294Z,183.87
2023-03-31T13:11:32.198Z,183.87
2023-03-31T13:12:32.252Z,133.1
2023-03-31T13:13:32.235Z,153.53
2023-03-31T13:14:32.245Z,197.32
2023-03-31T13:15:32.336Z,225.1
2023-03-31T13:16:32.309Z,260.69
2023-03-31T13:17:32.271Z,191.7
2023-03-31T13:18:32.228Z,236.35
2023-03-31T13:19:32.278Z,151.33
2023-03-31T13:20:32.217Z,133.59
2023-03-31T13:21:32.198Z,151.82
2023-03-31T13:22:32.207Z,173.47
2023-03-31T13:23:32.206Z,178.24
2023-03-31T13:24:32.218Z,98.85